地図

経路データ

SID SEASON NUMBER BASIN SUBBASIN NAME ISO_TIME NATURE LAT LON WMO_WIND WMO_PRES WMO_AGENCY TRACK_TYPE DIST2LAND LANDFALL IFLAG USA_AGENCY USA_ATCF_ID USA_LAT USA_LON USA_RECORD USA_STATUS USA_WIND USA_PRES USA_SSHS USA_R34_NE USA_R34_SE USA_R34_SW USA_R34_NW USA_R50_NE USA_R50_SE USA_R50_SW USA_R50_NW USA_R64_NE USA_R64_SE USA_R64_SW USA_R64_NW USA_POCI USA_ROCI USA_RMW USA_EYE TOKYO_LAT TOKYO_LON TOKYO_GRADE TOKYO_WIND TOKYO_PRES TOKYO_R50_DIR TOKYO_R50_LONG TOKYO_R50_SHORT TOKYO_R30_DIR TOKYO_R30_LONG TOKYO_R30_SHORT TOKYO_LAND CMA_LAT CMA_LON CMA_CAT CMA_WIND CMA_PRES HKO_LAT HKO_LON HKO_CAT HKO_WIND HKO_PRES NEWDELHI_LAT NEWDELHI_LON NEWDELHI_GRADE NEWDELHI_WIND NEWDELHI_PRES NEWDELHI_CI NEWDELHI_DP NEWDELHI_POCI REUNION_LAT REUNION_LON REUNION_TYPE REUNION_WIND REUNION_PRES REUNION_TNUM REUNION_CI REUNION_RMW REUNION_R34_NE REUNION_R34_SE REUNION_R34_SW REUNION_R34_NW REUNION_R50_NE REUNION_R50_SE REUNION_R50_SW REUNION_R50_NW REUNION_R64_NE REUNION_R64_SE REUNION_R64_SW REUNION_R64_NW BOM_LAT BOM_LON BOM_TYPE BOM_WIND BOM_PRES BOM_TNUM BOM_CI BOM_RMW BOM_R34_NE BOM_R34_SE BOM_R34_SW BOM_R34_NW BOM_R50_NE BOM_R50_SE BOM_R50_SW BOM_R50_NW BOM_R64_NE BOM_R64_SE BOM_R64_SW BOM_R64_NW BOM_ROCI BOM_POCI BOM_EYE BOM_POS_METHOD BOM_PRES_METHOD NADI_LAT NADI_LON NADI_CAT NADI_WIND NADI_PRES WELLINGTON_LAT WELLINGTON_LON WELLINGTON_WIND WELLINGTON_PRES DS824_LAT DS824_LON DS824_STAGE DS824_WIND DS824_PRES TD9636_LAT TD9636_LON TD9636_STAGE TD9636_WIND TD9636_PRES TD9635_LAT TD9635_LON TD9635_WIND TD9635_PRES TD9635_ROCI NEUMANN_LAT NEUMANN_LON NEUMANN_CLASS NEUMANN_WIND NEUMANN_PRES MLC_LAT MLC_LON MLC_CLASS MLC_WIND MLC_PRES USA_GUST BOM_GUST BOM_GUST_PER REUNION_GUST REUNION_GUST_PER USA_SEAHGT USA_SEARAD_NE USA_SEARAD_SE USA_SEARAD_SW USA_SEARAD_NW STORM_SPEED STORM_DIR
1942205N21089 1942 30 NI BB NOT_NAMED 1942-07-24 00:00:00 TS 21.4000 89.4000 main 33 23 _________O____ -1 21.4000 89.4000 TC 30 2 304
1942205N21089 1942 30 NI BB NOT_NAMED 1942-07-24 03:00:00 TS 21.4667 89.3000 main 23 10 _________PO___ -1 21.5000 89.2500 TC 30 21.4000 89.4000 1 3 304
1942205N21089 1942 30 NI BB NOT_NAMED 1942-07-24 06:00:00 TS 21.5576 89.1526 main 10 0 _________OP___ -1 21.6000 89.1000 TC 30 21.4941 89.2316 1 3 304
1942205N21089 1942 30 NI BB NOT_NAMED 1942-07-24 09:00:00 TS 21.6531 89.0016 main 0 0 _________PP___ -1 21.7000 88.9500 TC 30 21.5905 89.0704 1 3 305
1942205N21089 1942 30 NI BB NOT_NAMED 1942-07-24 12:00:00 TS 21.7458 88.8620 main 0 0 _________OP___ -1 21.8000 88.8000 TC 30 21.6916 88.9240 1 3 307
1942205N21089 1942 30 NI BB NOT_NAMED 1942-07-24 15:00:00 TS 21.8462 88.7250 main 10 0 _________PO___ -1 21.8925 88.6500 TC 30 21.8000 88.8000 1 3 311
1942205N21089 1942 30 NI BB NOT_NAMED 1942-07-24 18:00:00 TS 21.9586 88.5992 main 0 0 _________OP___ -1 22.0000 88.5000 TC 30 21.9173 88.6984 1 3 318
1942205N21089 1942 30 NI BB NOT_NAMED 1942-07-24 21:00:00 TS 22.0919 88.4921 main 0 0 _________PP___ -1 22.1423 88.3948 TC 30 22.0416 88.5894 1 4 317
1942205N21089 1942 30 NI BB NOT_NAMED 1942-07-25 00:00:00 TS 22.2351 88.3179 main 0 0 _________OP___ -1 22.3000 88.2000 TC 30 22.1702 88.4358 1 5 302
1942205N21089 1942 30 NI BB NOT_NAMED 1942-07-25 03:00:00 TS 22.3788 87.9976 main 0 0 _________PO___ -1 22.4577 87.7951 TC 30 22.3000 88.2000 1 7 292
1942205N21089 1942 30 NI BB NOT_NAMED 1942-07-25 06:00:00 TS 22.5188 87.5703 main 0 0 _________OP___ -1 22.6000 87.3000 TC 30 22.4376 87.8407 1 8 288
1942205N21089 1942 30 NI BB NOT_NAMED 1942-07-25 09:00:00 TS 22.6439 87.1277 main 0 0 _________PP___ -1 22.7148 86.8574 TC 30 22.5730 87.3980 1 9 285
1942205N21089 1942 30 NI BB NOT_NAMED 1942-07-25 12:00:00 TS 22.7484 86.6531 main 0 0 _________OP___ -1 22.8000 86.4000 TC 30 22.6968 86.9063 1 9 282
1942205N21089 1942 30 NI BB NOT_NAMED 1942-07-25 15:00:00 TS 22.8287 86.1499 main 0 0 _________PO___ -1 22.8575 85.8999 TC 30 22.8000 86.4000 1 9 278
1942205N21089 1942 30 NI BB NOT_NAMED 1942-07-25 18:00:00 TS 22.8775 85.6677 main 0 0 _________OP___ -1 22.9000 85.4000 TC 30 22.8549 85.9354 1 9 276
1942205N21089 1942 30 NI BB NOT_NAMED 1942-07-25 21:00:00 TS 22.9133 85.2068 main 0 0 _________PP___ -1 22.9347 84.9498 TC 30 22.8919 85.4637 1 9 276
1942205N21089 1942 30 NI BB NOT_NAMED 1942-07-26 00:00:00 TS 22.9665 84.7427 main 0 0 _________OP___ -1 23.0000 84.5000 TC 30 22.9330 84.9853 1 9 280
1942205N21089 1942 30 NI BB NOT_NAMED 1942-07-26 03:00:00 TS 23.0675 84.2538 main 0 0 _________PO___ -1 23.1349 84.0076 TC 30 23.0000 84.5000 1 9 285
1942205N21089 1942 30 NI BB NOT_NAMED 1942-07-26 06:00:00 TS 23.2022 83.7575 main 0 0 _________OP___ -1 23.3000 83.5000 TC 30 23.1045 84.0150 1 9 287
1942205N21089 1942 30 NI BB NOT_NAMED 1942-07-26 09:00:00 TS 23.3370 83.2645 main 0 0 _________PP___ -1 23.4348 83.0072 TC 30 23.2392 83.5218 1 10 288
1942205N21089 1942 30 NI BB NOT_NAMED 1942-07-26 12:00:00 TS 23.5022 82.7589 main 0 0 _________OP___ -1 23.6000 82.5000 TC 30 23.4044 83.0178 1 10 292
1942205N21089 1942 30 NI BB NOT_NAMED 1942-07-26 15:00:00 TS 23.7174 82.2288 main 0 0 _________PO___ -1 23.8349 81.9575 TC 30 23.6000 82.5000 1 10 295
1942205N21089 1942 30 NI BB NOT_NAMED 1942-07-26 18:00:00 TS 23.9427 81.7237 main 0 0 _________OP___ -1 24.1000 81.4000 TC 30 23.8247 81.9665 1 11 296
1942205N21089 1942 30 NI BB NOT_NAMED 1942-07-26 21:00:00 TS 24.1852 81.1909 main 0 0 _________PP___ -1 24.3553 80.8478 TC 30 24.0718 81.4197 1 11 297
1942205N21089 1942 30 NI BB NOT_NAMED 1942-07-27 00:00:00 TS 24.4219 80.6753 main 0 0 _________OP___ -1 24.6000 80.3000 TC 30 24.3329 80.8629 1 9 297
1942205N21089 1942 30 NI BB NOT_NAMED 1942-07-27 03:00:00 NR 24.6000 80.3000 main 0 __________O___ -1 TC 24.6000 80.3000 1 8 298

IBTrACS Databaseについて

本データベースは、米国NOAAが公開する1842年以降の世界の熱帯低気圧のベストトラックデータアーカイブInternational Best Track Archive for Climate Stewardship (IBTrACS)を、ウェブで閲覧しやすい形式に変換したものです。

最終更新日:2021-10-25